Time;durP1;ratioP1;P1;durP2;ratioP2;P2;SDS_P1;SDS_P2;PMS_P1;PMS_P2;Temp;Humidity;BMP_temperature;BMP_pressure;BME280_temperature;BME280_humidity;BME280_pressure;Samples;Min_cycle;Max_cycle;Signal;HPM_P1;HPM_P2
2023/05/13 00:01:51;;;;;;;14.10;7.50;;;13.50;99.90;;;;;;5047205;28;20404;-59
2023/05/13 00:04:16;;;;;;;10.93;7.68;;;13.40;99.90;;;;;;5048964;28;20236;-59
2023/05/13 00:06:42;;;;;;;12.57;8.05;;;13.40;99.90;;;;;;5033374;28;20447;-59
2023/05/13 00:09:08;;;;;;;10.30;7.22;;;13.40;99.90;;;;;;5030871;28;20048;-58
2023/05/13 00:11:34;;;;;;;11.13;6.72;;;13.40;99.90;;;;;;5051225;28;20418;-59
2023/05/13 00:14:00;;;;;;;10.32;7.78;;;13.40;99.90;;;;;;5031677;28;20048;-59
2023/05/13 00:16:27;;;;;;;13.73;7.00;;;13.40;99.90;;;;;;5044616;28;20646;-59
2023/05/13 00:18:54;;;;;;;11.45;7.15;;;13.40;99.90;;;;;;5049461;28;20048;-58
2023/05/13 00:21:20;;;;;;;9.02;7.13;;;13.40;99.90;;;;;;5035202;28;20140;-58
2023/05/13 00:23:45;;;;;;;11.70;8.30;;;13.30;99.90;;;;;;5056567;28;20123;-59
2023/05/13 00:26:11;;;;;;;8.70;7.07;;;13.30;99.90;;;;;;5047436;28;20559;-59
2023/05/13 00:28:37;;;;;;;9.15;7.05;;;13.30;99.90;;;;;;5055228;28;20093;-59
2023/05/13 00:31:02;;;;;;;11.60;8.02;;;13.30;99.90;;;;;;5049663;28;20037;-59
2023/05/13 00:33:28;;;;;;;14.05;8.45;;;13.30;99.90;;;;;;5054895;28;20123;-58
2023/05/13 00:35:54;;;;;;;10.15;7.78;;;13.30;99.90;;;;;;5044969;28;20037;-59
2023/05/13 00:38:19;;;;;;;12.65;7.80;;;13.30;99.90;;;;;;5033894;28;20547;-59
2023/05/13 00:40:46;;;;;;;12.35;8.63;;;13.30;99.90;;;;;;5050739;28;20040;-59
2023/05/13 00:43:12;;;;;;;11.52;7.63;;;13.30;99.90;;;;;;5046686;28;20040;-58
2023/05/13 00:45:37;;;;;;;11.70;9.30;;;13.30;99.90;;;;;;5047780;28;20054;-58
2023/05/13 00:48:05;;;;;;;10.68;8.68;;;13.20;99.90;;;;;;5048199;28;20037;-58
2023/05/13 00:50:32;;;;;;;11.10;8.20;;;13.20;99.90;;;;;;5046072;28;20083;-58
2023/05/13 00:52:59;;;;;;;11.10;9.15;;;13.20;99.90;;;;;;5029486;28;20115;-59
2023/05/13 00:55:25;;;;;;;11.75;8.68;;;13.20;99.90;;;;;;5034654;28;20052;-59
2023/05/13 00:57:51;;;;;;;13.20;9.13;;;13.20;99.90;;;;;;5048370;28;20071;-59
2023/05/13 01:00:17;;;;;;;10.90;8.25;;;13.10;99.90;;;;;;5046540;28;20036;-58
2023/05/13 01:03:01;;;;;;;12.73;9.18;;;13.10;99.90;;;;;;5043563;28;20047;-59
2023/05/13 01:06:03;;;;;;;15.93;9.57;;;13.10;99.90;;;;;;5044187;28;20044;-59
2023/05/13 01:08:46;;;;;;;14.70;9.80;;;13.00;99.90;;;;;;4978354;28;20825;-58
2023/05/13 01:11:36;;;;;;;12.77;9.38;;;13.00;99.90;;;;;;5029551;28;20040;-58
2023/05/13 01:14:30;;;;;;;15.20;11.45;;;13.00;99.90;;;;;;5063766;28;20380;-59
2023/05/13 01:17:02;;;;;;;11.10;9.93;;;13.00;99.90;;;;;;5050335;28;20075;-59
2023/05/13 01:19:51;;;;;;;16.90;10.82;;;13.00;99.90;;;;;;5049276;28;20307;-58
2023/05/13 01:22:16;;;;;;;13.88;9.80;;;12.90;99.90;;;;;;5052754;28;20072;-58
2023/05/13 01:24:42;;;;;;;15.65;10.05;;;12.90;99.90;;;;;;5057447;28;20075;-58
2023/05/13 01:27:08;;;;;;;12.18;10.65;;;12.90;99.90;;;;;;5050656;28;20510;-58
2023/05/13 01:29:34;;;;;;;15.15;11.18;;;12.90;99.90;;;;;;5054441;28;20106;-58
2023/05/13 01:32:01;;;;;;;13.13;10.60;;;12.90;99.90;;;;;;5034318;28;20076;-58
2023/05/13 01:34:28;;;;;;;12.25;10.77;;;12.80;99.90;;;;;;5041991;28;20630;-58
2023/05/13 01:36:55;;;;;;;15.77;10.73;;;12.80;99.90;;;;;;5053267;28;20036;-59
2023/05/13 01:39:22;;;;;;;13.25;9.65;;;12.80;99.90;;;;;;5049030;28;20726;-58
2023/05/13 01:41:48;;;;;;;11.75;10.30;;;12.80;99.90;;;;;;5041220;28;20036;-58
2023/05/13 01:44:14;;;;;;;12.88;9.90;;;12.80;99.90;;;;;;5043163;28;20042;-59
2023/05/13 01:46:42;;;;;;;15.20;10.43;;;12.80;99.90;;;;;;5038857;28;20116;-59
2023/05/13 01:49:09;;;;;;;14.82;10.27;;;12.70;99.90;;;;;;5034245;28;20044;-59
2023/05/13 01:51:36;;;;;;;15.10;10.07;;;12.70;99.90;;;;;;5036227;28;20044;-58
2023/05/13 01:54:03;;;;;;;16.23;8.88;;;12.70;99.90;;;;;;5034776;28;20041;-59
2023/05/13 01:56:29;;;;;;;16.33;10.57;;;12.70;99.90;;;;;;5064944;28;20068;-58
2023/05/13 01:58:55;;;;;;;11.98;10.57;;;12.70;99.90;;;;;;5071580;28;20251;-59
2023/05/13 02:01:20;;;;;;;13.13;10.63;;;12.60;99.90;;;;;;5049721;28;20040;-59
2023/05/13 02:03:46;;;;;;;13.02;9.85;;;12.60;99.90;;;;;;5051766;28;20603;-58
2023/05/13 02:06:12;;;;;;;14.85;10.73;;;12.60;99.90;;;;;;5071893;28;20050;-58
2023/05/13 02:08:37;;;;;;;10.52;9.07;;;12.60;99.90;;;;;;5050561;28;20131;-59
2023/05/13 02:11:03;;;;;;;15.35;10.45;;;12.50;99.90;;;;;;5048470;28;20041;-58
2023/05/13 02:13:29;;;;;;;14.27;9.75;;;12.60;99.90;;;;;;5052103;28;20098;-59
2023/05/13 02:15:55;;;;;;;12.05;9.73;;;12.60;99.90;;;;;;5052110;28;20098;-59
2023/05/13 02:18:21;;;;;;;17.85;10.18;;;12.60;99.90;;;;;;5046851;28;20036;-59
2023/05/13 02:20:47;;;;;;;12.65;10.18;;;12.60;99.90;;;;;;5038285;28;20472;-58
2023/05/13 02:23:13;;;;;;;14.77;10.50;;;12.60;99.90;;;;;;5048158;28;20051;-58
2023/05/13 02:25:41;;;;;;;15.88;11.65;;;12.50;99.90;;;;;;5065475;28;20089;-58
2023/05/13 02:28:07;;;;;;;11.38;9.63;;;12.50;99.90;;;;;;5039750;28;20164;-59
2023/05/13 02:30:32;;;;;;;11.52;10.32;;;12.50;99.90;;;;;;5057863;28;20135;-58
2023/05/13 02:32:59;;;;;;;12.93;9.85;;;12.50;99.90;;;;;;5042301;28;20451;-58
2023/05/13 02:35:28;;;;;;;15.10;10.70;;;12.50;99.90;;;;;;5049354;28;20089;-58
2023/05/13 02:37:55;;;;;;;12.75;9.95;;;12.40;99.90;;;;;;5048955;28;20044;-58
2023/05/13 02:40:21;;;;;;;10.90;9.63;;;12.40;99.90;;;;;;5050778;28;20068;-58
2023/05/13 02:42:47;;;;;;;14.10;10.40;;;12.40;99.90;;;;;;5046339;28;20488;-58
2023/05/13 02:45:13;;;;;;;14.85;10.20;;;12.40;99.90;;;;;;5032322;28;20078;-58
2023/05/13 02:47:41;;;;;;;13.73;10.57;;;12.40;99.90;;;;;;5051460;28;20044;-58
2023/05/13 02:50:08;;;;;;;12.32;9.95;;;12.40;99.90;;;;;;5049004;28;20123;-57
2023/05/13 02:52:38;;;;;;;13.60;9.93;;;12.40;99.90;;;;;;5050300;28;20044;-58
2023/05/13 02:55:05;;;;;;;13.10;9.80;;;12.30;99.90;;;;;;5032498;28;20045;-58
2023/05/13 02:57:31;;;;;;;14.45;10.25;;;12.30;99.90;;;;;;5049798;28;20079;-59
2023/05/13 02:59:57;;;;;;;12.65;9.07;;;12.30;99.90;;;;;;5046472;28;20081;-59
2023/05/13 03:02:23;;;;;;;13.95;9.65;;;12.30;99.90;;;;;;5017991;28;20538;-59
2023/05/13 03:04:49;;;;;;;14.35;9.73;;;12.20;99.90;;;;;;5033350;28;20044;-57
2023/05/13 03:07:15;;;;;;;14.90;10.10;;;12.20;99.90;;;;;;5029917;28;20041;-58
2023/05/13 03:09:41;;;;;;;13.07;9.75;;;12.30;99.90;;;;;;5053785;28;20245;-59
2023/05/13 03:12:07;;;;;;;14.20;10.48;;;12.00;99.90;;;;;;5031192;28;20499;-57
2023/05/13 03:14:35;;;;;;;10.65;9.55;;;12.20;99.90;;;;;;5047843;28;20039;-58
2023/05/13 03:17:02;;;;;;;13.52;10.77;;;12.20;99.90;;;;;;5042638;28;22163;-59
2023/05/13 03:19:27;;;;;;;12.52;10.77;;;12.20;99.90;;;;;;5048096;28;20119;-58
2023/05/13 03:21:53;;;;;;;15.30;10.63;;;12.20;99.90;;;;;;5046501;28;20774;-61
2023/05/13 03:24:19;;;;;;;14.55;11.88;;;12.20;99.90;;;;;;5026396;28;20463;-56
2023/05/13 03:26:44;;;;;;;16.02;11.90;;;12.20;99.90;;;;;;5040337;28;20143;-59
2023/05/13 03:29:10;;;;;;;17.42;13.20;;;12.20;99.90;;;;;;5045296;28;21141;-56
2023/05/13 03:31:36;;;;;;;15.23;12.38;;;12.20;99.90;;;;;;5041545;28;20093;-59
2023/05/13 03:34:02;;;;;;;16.73;12.32;;;12.10;99.90;;;;;;5029849;28;20507;-57
2023/05/13 03:36:28;;;;;;;16.35;12.27;;;12.10;99.90;;;;;;5042272;28;20044;-57
2023/05/13 03:38:53;;;;;;;16.52;12.30;;;12.10;99.90;;;;;;5044045;28;20475;-58
2023/05/13 03:41:19;;;;;;;17.52;12.10;;;12.10;99.90;;;;;;5048451;28;20046;-59
2023/05/13 03:43:45;;;;;;;14.25;12.10;;;12.10;99.90;;;;;;5047467;28;20036;-60
2023/05/13 03:46:11;;;;;;;17.52;12.27;;;12.10;99.90;;;;;;5067124;28;20038;-58
2023/05/13 03:48:37;;;;;;;14.88;11.02;;;12.10;99.90;;;;;;5033743;28;20043;-57
2023/05/13 03:51:02;;;;;;;15.20;11.63;;;12.10;99.90;;;;;;5041999;28;20040;-56
2023/05/13 03:53:28;;;;;;;14.25;11.43;;;12.10;99.90;;;;;;5050087;28;20048;-56
2023/05/13 03:55:54;;;;;;;13.50;10.48;;;12.10;99.90;;;;;;5048876;28;20090;-58
2023/05/13 03:58:23;;;;;;;11.45;10.13;;;12.10;99.90;;;;;;5032670;28;20339;-59
2023/05/13 04:00:48;;;;;;;10.88;9.75;;;12.10;99.90;;;;;;5032187;28;20395;-57
2023/05/13 04:03:16;;;;;;;12.15;9.82;;;12.10;99.90;;;;;;5018032;28;20036;-57
2023/05/13 04:05:42;;;;;;;13.00;10.65;;;12.10;99.90;;;;;;5046972;28;20350;-58
2023/05/13 04:08:10;;;;;;;13.15;9.52;;;12.10;99.90;;;;;;5032761;28;20036;-59
2023/05/13 04:10:35;;;;;;;12.77;9.57;;;12.10;99.90;;;;;;5043539;28;20074;-56
2023/05/13 04:13:01;;;;;;;13.05;9.48;;;12.10;99.90;;;;;;5016344;28;20041;-57
2023/05/13 04:15:27;;;;;;;11.65;9.10;;;12.10;99.90;;;;;;5049088;28;20352;-59
2023/05/13 04:17:53;;;;;;;11.40;9.25;;;12.10;99.90;;;;;;5045800;28;20522;-59
2023/05/13 04:20:18;;;;;;;16.85;9.65;;;12.20;99.90;;;;;;5052242;28;20117;-57
2023/05/13 04:22:44;;;;;;;15.88;9.05;;;12.10;99.90;;;;;;5050759;28;20044;-58
2023/05/13 04:25:10;;;;;;;11.55;8.57;;;12.10;99.90;;;;;;5063060;28;20045;-58
2023/05/13 04:27:36;;;;;;;27.20;9.95;;;12.10;99.90;;;;;;5047359;28;20522;-57
2023/05/13 04:30:01;;;;;;;12.40;9.70;;;12.10;99.90;;;;;;5048479;28;20537;-57
2023/05/13 04:32:27;;;;;;;11.20;8.45;;;12.20;99.90;;;;;;5031399;28;20040;-57
2023/05/13 04:34:53;;;;;;;13.27;8.20;;;12.20;99.90;;;;;;5027036;28;20556;-58
2023/05/13 04:37:19;;;;;;;11.15;8.55;;;12.20;99.90;;;;;;5046119;28;20048;-58
2023/05/13 04:39:46;;;;;;;10.27;8.43;;;12.20;99.90;;;;;;5030061;28;20078;-56
2023/05/13 04:42:13;;;;;;;11.23;8.30;;;12.20;99.90;;;;;;5048625;28;20477;-59
2023/05/13 04:44:38;;;;;;;13.43;8.77;;;12.20;99.90;;;;;;5046106;28;20372;-59
2023/05/13 04:47:04;;;;;;;11.50;8.07;;;12.30;99.90;;;;;;5058168;28;20075;-59
2023/05/13 04:49:30;;;;;;;11.20;7.68;;;12.30;99.90;;;;;;5036296;28;20432;-59
2023/05/13 04:51:56;;;;;;;12.55;8.45;;;12.30;99.90;;;;;;5038347;28;20044;-59
2023/05/13 04:54:22;;;;;;;15.85;9.43;;;12.30;99.90;;;;;;5053597;28;20036;-58
2023/05/13 04:56:48;;;;;;;10.63;8.00;;;12.30;99.90;;;;;;5060199;28;20067;-57
2023/05/13 04:59:14;;;;;;;13.60;8.38;;;12.40;99.90;;;;;;5051596;28;20045;-59
2023/05/13 05:01:40;;;;;;;13.45;7.60;;;12.40;99.90;;;;;;5037909;28;20086;-59
2023/05/13 05:04:05;;;;;;;10.73;7.60;;;12.40;99.90;;;;;;5039008;28;20040;-58
2023/05/13 05:06:31;;;;;;;10.73;7.95;;;12.40;99.90;;;;;;5052454;28;20056;-59
2023/05/13 05:08:58;;;;;;;10.95;7.63;;;12.50;99.90;;;;;;5051410;28;20093;-58
2023/05/13 05:11:23;;;;;;;12.63;8.45;;;12.50;99.90;;;;;;5053236;28;20356;-59
2023/05/13 05:13:49;;;;;;;12.23;8.75;;;12.60;99.90;;;;;;5036475;28;20046;-57
2023/05/13 05:16:15;;;;;;;12.18;8.55;;;12.60;99.90;;;;;;5050838;28;20044;-58
2023/05/13 05:18:42;;;;;;;12.20;7.63;;;12.70;99.90;;;;;;5054743;28;20036;-57
2023/05/13 05:21:08;;;;;;;9.80;7.25;;;12.70;99.90;;;;;;5037991;28;20037;-59
2023/05/13 05:23:34;;;;;;;10.68;7.50;;;12.70;99.90;;;;;;5054743;28;20060;-58
2023/05/13 05:26:01;;;;;;;13.30;7.38;;;12.80;99.90;;;;;;5053827;28;20051;-58
2023/05/13 05:28:26;;;;;;;9.68;6.78;;;12.80;99.90;;;;;;5054008;28;20037;-59
2023/05/13 05:30:52;;;;;;;11.02;7.07;;;12.90;99.90;;;;;;5036032;28;20111;-58
2023/05/13 05:33:19;;;;;;;12.68;7.47;;;13.00;99.90;;;;;;5034017;28;20037;-58
2023/05/13 05:35:44;;;;;;;8.20;6.30;;;13.00;99.90;;;;;;5059797;28;20074;-57
2023/05/13 05:38:11;;;;;;;10.77;7.10;;;13.10;99.90;;;;;;5036317;28;20483;-59
2023/05/13 05:40:40;;;;;;;13.98;7.80;;;13.10;99.90;;;;;;5030997;28;20143;-58
2023/05/13 05:43:06;;;;;;;12.05;7.10;;;13.20;99.90;;;;;;5033494;28;20090;-59
2023/05/13 05:45:34;;;;;;;11.70;6.30;;;13.30;99.90;;;;;;5051863;28;20044;-59
2023/05/13 05:48:00;;;;;;;8.75;6.40;;;13.40;99.90;;;;;;5048584;28;20479;-58
2023/05/13 05:50:27;;;;;;;11.75;7.05;;;13.40;99.90;;;;;;5039553;28;20051;-59
2023/05/13 05:52:53;;;;;;;9.63;6.45;;;13.50;99.90;;;;;;5051437;28;20041;-58
2023/05/13 05:55:18;;;;;;;14.45;6.43;;;13.60;99.90;;;;;;5051618;28;20072;-57
2023/05/13 05:57:44;;;;;;;7.55;6.45;;;13.70;99.90;;;;;;5039120;28;20514;-60
2023/05/13 06:00:10;;;;;;;9.30;6.70;;;13.80;99.90;;;;;;5049905;28;20097;-59
2023/05/13 06:02:36;;;;;;;10.68;7.97;;;13.80;99.90;;;;;;5057843;28;20035;-58
2023/05/13 06:05:02;;;;;;;11.20;6.57;;;13.90;99.90;;;;;;5054321;28;20033;-59
2023/05/13 06:07:28;;;;;;;11.20;7.18;;;14.00;99.90;;;;;;5029608;28;20036;-58
2023/05/13 06:09:54;;;;;;;8.55;6.13;;;14.10;99.90;;;;;;5047116;28;20059;-59
2023/05/13 06:12:21;;;;;;;9.60;5.95;;;14.20;99.90;;;;;;5063150;28;20047;-59
2023/05/13 06:14:50;;;;;;;10.50;6.82;;;14.30;99.90;;;;;;5062042;28;20558;-57
2023/05/13 06:17:16;;;;;;;11.30;6.65;;;14.30;99.90;;;;;;5042227;28;20051;-58
2023/05/13 06:19:42;;;;;;;9.10;6.18;;;14.40;99.90;;;;;;5045801;28;20066;-60
2023/05/13 06:22:09;;;;;;;12.77;7.38;;;14.50;99.90;;;;;;5045336;28;20028;-61
2023/05/13 06:24:35;;;;;;;11.95;8.05;;;14.50;99.90;;;;;;5060289;28;20415;-58
2023/05/13 06:27:01;;;;;;;11.52;6.88;;;14.60;99.90;;;;;;5046081;28;20598;-57
2023/05/13 06:29:28;;;;;;;8.45;6.10;;;14.70;99.90;;;;;;5064821;28;20511;-58
2023/05/13 06:31:53;;;;;;;11.48;6.18;;;14.80;99.90;;;;;;5044597;28;20052;-57
2023/05/13 06:34:19;;;;;;;13.57;6.80;;;14.80;99.90;;;;;;5043939;28;20040;-59
2023/05/13 06:36:45;;;;;;;9.88;6.63;;;14.90;99.90;;;;;;5047304;28;20049;-59
2023/05/13 06:39:11;;;;;;;10.73;6.28;;;15.00;99.90;;;;;;5049384;28;20090;-56
2023/05/13 06:41:38;;;;;;;10.98;6.50;;;15.00;99.90;;;;;;5047879;28;20044;-59
2023/05/13 06:44:05;;;;;;;11.70;6.38;;;15.10;99.90;;;;;;5055184;28;20040;-59
2023/05/13 06:46:31;;;;;;;8.60;5.93;;;15.20;99.90;;;;;;5046706;28;20091;-59
2023/05/13 06:48:57;;;;;;;9.63;5.93;;;15.30;99.90;;;;;;5049647;28;20046;-59
2023/05/13 06:51:27;;;;;;;12.23;6.55;;;15.40;99.90;;;;;;5031345;28;20056;-60
2023/05/13 06:53:53;;;;;;;9.38;5.93;;;15.40;99.90;;;;;;5027632;28;20044;-61
2023/05/13 06:56:21;;;;;;;8.25;5.97;;;15.50;99.90;;;;;;5048629;28;20068;-60
2023/05/13 06:58:49;;;;;;;11.45;5.80;;;15.60;99.90;;;;;;5042940;28;20606;-59
2023/05/13 07:01:18;;;;;;;8.43;6.03;;;15.70;99.90;;;;;;5043793;28;20419;-60
2023/05/13 07:03:44;;;;;;;10.52;6.22;;;15.80;99.90;;;;;;5044557;28;20129;-59
2023/05/13 07:06:10;;;;;;;10.60;6.65;;;15.90;99.90;;;;;;5013370;28;20049;-60
2023/05/13 07:08:37;;;;;;;8.32;5.68;;;15.90;99.90;;;;;;5046067;28;20043;-59
2023/05/13 07:11:03;;;;;;;8.95;4.97;;;16.00;99.90;;;;;;5048860;28;20044;-59
2023/05/13 07:13:29;;;;;;;7.72;5.50;;;16.00;99.90;;;;;;5045301;28;20037;-59
2023/05/13 07:15:56;;;;;;;9.05;5.82;;;16.10;99.90;;;;;;5045108;28;20423;-60
2023/05/13 07:18:22;;;;;;;9.63;5.50;;;16.20;99.90;;;;;;5043073;28;20200;-59
2023/05/13 07:20:48;;;;;;;7.57;5.70;;;16.30;99.90;;;;;;5030235;28;20768;-59
2023/05/13 07:23:13;;;;;;;11.30;5.63;;;16.40;99.90;;;;;;5031742;28;20041;-59
2023/05/13 07:25:39;;;;;;;12.57;5.88;;;16.40;99.90;;;;;;5064992;28;20037;-57
2023/05/13 07:28:05;;;;;;;8.25;5.10;;;16.50;99.90;;;;;;5046930;28;20041;-60
2023/05/13 07:30:33;;;;;;;8.10;5.47;;;16.60;99.90;;;;;;5066481;28;20070;-59
2023/05/13 07:32:59;;;;;;;10.25;5.75;;;16.70;99.90;;;;;;5068416;28;20052;-60
2023/05/13 07:35:25;;;;;;;8.02;4.85;;;16.80;99.90;;;;;;5041525;28;20067;-60
2023/05/13 07:37:51;;;;;;;10.60;5.60;;;16.90;99.90;;;;;;5044302;28;20032;-60
2023/05/13 07:40:17;;;;;;;8.43;5.35;;;16.90;99.90;;;;;;5046695;28;20083;-60
2023/05/13 07:42:43;;;;;;;8.82;5.53;;;17.00;99.90;;;;;;5029102;28;20040;-58
2023/05/13 07:45:09;;;;;;;9.30;5.20;;;17.00;99.90;;;;;;5031809;28;20059;-59
2023/05/13 07:47:35;;;;;;;11.23;5.47;;;17.10;99.90;;;;;;5011984;28;20105;-58
2023/05/13 07:50:01;;;;;;;10.35;4.57;;;17.20;99.90;;;;;;5029252;28;20044;-59
2023/05/13 07:52:26;;;;;;;10.70;4.95;;;17.30;99.90;;;;;;5037849;28;20037;-59
2023/05/13 07:54:53;;;;;;;8.07;5.00;;;17.30;99.90;;;;;;5043865;28;20071;-59
2023/05/13 07:57:18;;;;;;;10.27;4.75;;;17.30;99.90;;;;;;5040990;28;20045;-57
2023/05/13 07:59:45;;;;;;;9.07;4.97;;;17.40;99.90;;;;;;5008258;28;20101;-57
2023/05/13 08:02:11;;;;;;;7.78;4.97;;;17.50;99.90;;;;;;5044202;28;20429;-60
2023/05/13 08:04:37;;;;;;;9.38;4.70;;;17.60;99.90;;;;;;5011376;28;20040;-60
2023/05/13 08:07:03;;;;;;;8.00;4.82;;;17.60;99.90;;;;;;5038099;28;20044;-60
2023/05/13 08:09:29;;;;;;;9.88;4.93;;;17.70;99.90;;;;;;5027964;28;20442;-59
2023/05/13 08:11:55;;;;;;;12.45;4.75;;;17.80;99.90;;;;;;5030953;28;20044;-58
2023/05/13 08:14:20;;;;;;;8.30;4.63;;;17.80;99.90;;;;;;5048264;28;20033;-59
2023/05/13 08:16:46;;;;;;;8.95;5.20;;;17.90;99.90;;;;;;5043163;28;20036;-59
2023/05/13 08:19:15;;;;;;;8.95;4.97;;;18.00;99.90;;;;;;5042421;28;20411;-61
2023/05/13 08:21:41;;;;;;;7.38;4.70;;;18.10;99.90;;;;;;5038071;28;20359;-60
2023/05/13 08:24:07;;;;;;;9.95;5.13;;;18.20;99.90;;;;;;5046140;28;20111;-55
2023/05/13 08:26:33;;;;;;;8.32;4.90;;;18.30;99.90;;;;;;5033967;28;20053;-59
2023/05/13 08:28:59;;;;;;;8.57;5.60;;;18.40;99.90;;;;;;5049318;28;20047;-60
2023/05/13 08:31:25;;;;;;;9.55;5.10;;;18.50;99.90;;;;;;5058804;28;20043;-56
2023/05/13 08:33:54;;;;;;;9.32;5.07;;;18.50;99.90;;;;;;5050219;28;20087;-59
2023/05/13 08:36:24;;;;;;;7.10;4.43;;;18.60;99.90;;;;;;5026911;28;20079;-59
2023/05/13 08:38:50;;;;;;;6.47;4.20;;;18.70;99.90;;;;;;5058325;28;20041;-57
2023/05/13 08:41:16;;;;;;;9.52;4.10;;;18.80;99.90;;;;;;5044628;28;20098;-61
2023/05/13 08:43:42;;;;;;;7.97;4.18;;;18.90;99.90;;;;;;5022814;28;20036;-60
2023/05/13 08:46:10;;;;;;;9.43;4.40;;;19.00;99.90;;;;;;5046472;28;20480;-60
2023/05/13 08:48:38;;;;;;;9.25;4.65;;;19.00;99.90;;;;;;5045579;28;20437;-59
2023/05/13 08:51:04;;;;;;;6.75;4.07;;;19.10;99.90;;;;;;5036357;28;20040;-59
2023/05/13 08:53:30;;;;;;;5.90;4.57;;;19.10;99.90;;;;;;5024870;28;20055;-59
2023/05/13 08:55:56;;;;;;;7.05;4.43;;;19.10;99.90;;;;;;5042003;28;20045;-60
2023/05/13 08:58:24;;;;;;;7.78;4.70;;;19.30;99.90;;;;;;5026036;28;20040;-60
2023/05/13 09:00:52;;;;;;;6.78;4.45;;;19.40;99.90;;;;;;5044495;28;20042;-60
2023/05/13 09:03:20;;;;;;;7.95;4.85;;;19.50;99.90;;;;;;5030045;28;20484;-59
2023/05/13 09:05:46;;;;;;;10.63;4.32;;;19.50;99.60;;;;;;5026746;28;20174;-60
2023/05/13 09:08:12;;;;;;;12.23;4.82;;;19.50;99.90;;;;;;5041466;28;20044;-59
2023/05/13 09:10:38;;;;;;;9.63;4.70;;;19.60;99.90;;;;;;5049873;28;20039;-59
2023/05/13 09:13:05;;;;;;;8.32;4.78;;;19.60;99.80;;;;;;5064778;28;20048;-60
2023/05/13 09:15:31;;;;;;;9.60;5.32;;;19.70;99.60;;;;;;5028177;28;20040;-57
2023/05/13 09:18:05;;;;;;;8.52;5.05;;;19.80;99.80;;;;;;5044210;28;20052;-60
2023/05/13 09:20:34;;;;;;;6.47;4.50;;;19.90;99.70;;;;;;5023066;28;20163;-60
2023/05/13 09:23:02;;;;;;;7.78;5.20;;;20.00;99.90;;;;;;5036564;28;20494;-57
2023/05/13 09:25:30;;;;;;;8.93;5.20;;;20.10;99.70;;;;;;5045903;28;20106;-59
2023/05/13 09:28:00;;;;;;;7.93;5.45;;;20.10;99.90;;;;;;5049515;28;20047;-58
2023/05/13 09:30:33;;;;;;;8.38;5.18;;;20.20;99.90;;;;;;5026297;28;20056;-58
2023/05/13 09:33:18;;;;;;;8.77;5.47;;;20.20;99.90;;;;;;5027896;28;20610;-61
2023/05/13 09:35:49;;;;;;;9.55;5.20;;;20.40;99.90;;;;;;5046216;28;20368;-60
2023/05/13 09:38:18;;;;;;;8.10;5.53;;;20.50;99.80;;;;;;5027144;28;20322;-60
2023/05/13 09:40:53;;;;;;;9.05;5.03;;;20.60;99.80;;;;;;5041266;28;20045;-60
2023/05/13 09:43:25;;;;;;;9.15;5.82;;;20.60;99.90;;;;;;5030621;28;20060;-59
2023/05/13 09:45:55;;;;;;;9.68;5.60;;;20.70;99.90;;;;;;5045189;28;20457;-59
2023/05/13 09:48:25;;;;;;;7.68;5.40;;;20.70;99.70;;;;;;5050674;28;20051;-60
2023/05/13 09:50:52;;;;;;;8.50;5.40;;;20.80;99.70;;;;;;5064510;28;20541;-59
2023/05/13 09:53:21;;;;;;;11.45;5.40;;;21.00;99.60;;;;;;5048903;28;20059;-59
2023/05/13 09:55:52;;;;;;;11.10;5.55;;;20.90;99.80;;;;;;5026208;28;20127;-59
2023/05/13 09:58:19;;;;;;;9.60;5.90;;;21.00;99.50;;;;;;5026758;28;20659;-59
2023/05/13 10:00:46;;;;;;;14.00;6.00;;;21.00;99.60;;;;;;5045141;28;20041;-60
2023/05/13 10:03:12;;;;;;;12.27;5.15;;;20.90;98.30;;;;;;5047651;28;20675;-60
2023/05/13 10:05:39;;;;;;;8.48;5.55;;;21.00;99.00;;;;;;5029977;28;20144;-58
2023/05/13 10:08:05;;;;;;;8.05;4.78;;;21.10;98.90;;;;;;5043658;28;20045;-60
2023/05/13 10:10:33;;;;;;;6.35;5.05;;;21.10;97.60;;;;;;5029799;28;20548;-60
2023/05/13 10:13:07;;;;;;;9.63;5.07;;;21.00;97.80;;;;;;5047677;28;20101;-61
2023/05/13 10:15:33;;;;;;;10.65;4.80;;;21.00;97.60;;;;;;5048666;28;20041;-59
2023/05/13 10:18:00;;;;;;;6.43;4.38;;;21.00;98.00;;;;;;5041565;28;20044;-59
2023/05/13 10:20:26;;;;;;;12.13;5.13;;;21.20;97.60;;;;;;5046444;28;20036;-59
2023/05/13 10:22:53;;;;;;;8.48;4.57;;;21.20;97.50;;;;;;5033552;28;20101;-60
2023/05/13 10:25:19;;;;;;;7.55;4.95;;;21.30;97.20;;;;;;5050286;28;20045;-59
2023/05/13 10:27:46;;;;;;;6.97;4.50;;;21.30;96.50;;;;;;5036774;28;20143;-60
2023/05/13 10:30:17;;;;;;;8.88;5.07;;;21.40;96.60;;;;;;5042991;28;20048;-60
2023/05/13 10:32:43;;;;;;;8.90;5.20;;;21.40;96.30;;;;;;5016541;28;20048;-59
2023/05/13 10:35:15;;;;;;;9.85;5.80;;;21.30;96.20;;;;;;5028318;28;20037;-61
2023/05/13 10:38:11;;;;;;;8.30;5.05;;;21.40;96.80;;;;;;5052725;28;20063;-59
2023/05/13 10:40:55;;;;;;;9.25;5.30;;;21.50;97.20;;;;;;5049047;28;20399;-59
2023/05/13 10:43:22;;;;;;;9.50;5.00;;;21.60;97.10;;;;;;5040013;28;20106;-60
2023/05/13 10:46:09;;;;;;;8.57;5.40;;;21.70;97.20;;;;;;5041534;28;20541;-59
2023/05/13 10:48:39;;;;;;;7.47;4.60;;;21.80;96.40;;;;;;5056666;28;20237;-59
2023/05/13 10:51:06;;;;;;;10.88;5.57;;;21.60;95.40;;;;;;5045172;28;20419;-60
2023/05/13 10:53:41;;;;;;;8.45;4.53;;;21.70;96.10;;;;;;5049020;28;20044;-60
2023/05/13 10:56:07;;;;;;;11.73;4.90;;;21.80;96.00;;;;;;5051293;28;20036;-59
2023/05/13 10:58:39;;;;;;;10.52;5.85;;;21.80;96.30;;;;;;5049642;28;20052;-59
2023/05/13 11:01:28;;;;;;;10.93;5.18;;;21.90;96.70;;;;;;5018001;28;20036;-60
2023/05/13 11:03:57;;;;;;;9.65;5.30;;;21.90;96.30;;;;;;5040492;28;20056;-60
2023/05/13 11:06:37;;;;;;;8.25;5.03;;;21.90;96.40;;;;;;5046511;28;20177;-60
2023/05/13 11:09:14;;;;;;;7.38;5.10;;;22.00;96.70;;;;;;5035090;28;20376;-60
2023/05/13 11:11:40;;;;;;;11.45;5.60;;;22.10;96.00;;;;;;5048966;28;20050;-58
2023/05/13 11:14:42;;;;;;;7.65;5.40;;;22.20;96.40;;;;;;5056363;28;20043;-61
2023/05/13 11:17:10;;;;;;;9.60;5.80;;;22.20;95.00;;;;;;4972461;28;20446;-59
2023/05/13 11:19:47;;;;;;;7.25;5.30;;;22.10;96.00;;;;;;5040465;28;20053;-59
2023/05/13 11:22:18;;;;;;;10.35;5.47;;;22.20;96.40;;;;;;5054874;28;20101;-60
2023/05/13 11:24:45;;;;;;;8.93;6.90;;;22.30;96.10;;;;;;5053868;28;20045;-61
2023/05/13 11:27:19;;;;;;;9.85;5.82;;;22.10;95.80;;;;;;5047684;28;20376;-59
2023/05/13 11:29:47;;;;;;;;;;;22.10;96.40;;;;;;5039688;28;20044;-58
2023/05/13 11:32:13;;;;;;;8.13;5.00;;;22.20;96.00;;;;;;5053355;28;19999;-60
2023/05/13 11:34:50;;;;;;;9.10;5.43;;;22.30;96.90;;;;;;5033316;28;20120;-60
2023/05/13 11:37:16;;;;;;;18.63;6.85;;;22.50;96.80;;;;;;5046883;28;20051;-61
2023/05/13 11:39:42;;;;;;;10.68;6.82;;;22.70;96.70;;;;;;5080104;28;20040;-59
2023/05/13 11:42:09;;;;;;;9.20;6.00;;;22.50;96.30;;;;;;5043998;28;20495;-60
2023/05/13 11:44:43;;;;;;;9.27;5.55;;;22.40;96.70;;;;;;5045039;28;20041;-60
2023/05/13 11:47:08;;;;;;;11.18;5.82;;;22.60;96.20;;;;;;5052089;28;20390;-61
2023/05/13 11:49:41;;;;;;;6.90;5.35;;;22.60;95.90;;;;;;5017772;28;20102;-61
2023/05/13 11:52:18;;;;;;;8.57;6.10;;;22.60;96.40;;;;;;5044114;28;20345;-58
2023/05/13 11:54:54;;;;;;;10.50;6.00;;;22.80;96.30;;;;;;5052762;28;20047;-58
2023/05/13 11:57:20;;;;;;;11.52;6.13;;;22.80;95.70;;;;;;5055827;28;20050;-59
2023/05/13 12:00:05;;;;;;;7.60;5.32;;;22.80;95.50;;;;;;5052253;28;20048;-60
2023/05/13 12:02:35;;;;;;;8.80;5.72;;;22.80;95.20;;;;;;5050063;28;20048;-58
2023/05/13 12:05:09;;;;;;;8.05;5.05;;;22.80;96.20;;;;;;5056594;28;20043;-61
2023/05/13 12:07:36;;;;;;;11.15;5.80;;;23.10;96.10;;;;;;5047864;28;20749;-59
2023/05/13 12:10:03;;;;;;;12.23;5.30;;;23.20;95.80;;;;;;5075387;28;20274;-60
2023/05/13 12:12:31;;;;;;;14.68;5.00;;;23.00;95.20;;;;;;5052013;28;20033;-59
2023/05/13 12:15:09;;;;;;;8.70;5.43;;;23.10;95.20;;;;;;5015855;28;20499;-60
2023/05/13 12:17:36;;;;;;;7.60;5.25;;;23.30;94.80;;;;;;5049962;28;20049;-59
2023/05/13 12:20:09;;;;;;;10.60;5.18;;;22.80;94.30;;;;;;5018197;28;20036;-60
2023/05/13 12:22:47;;;;;;;6.90;4.88;;;23.00;95.70;;;;;;5040833;28;20462;-61
2023/05/13 12:25:35;;;;;;;10.82;5.10;;;23.10;95.60;;;;;;5049324;28;20036;-60
2023/05/13 12:28:15;;;;;;;6.35;5.55;;;23.30;95.20;;;;;;5035458;28;20135;-60
2023/05/13 12:30:53;;;;;;;10.23;6.10;;;23.40;95.20;;;;;;5050201;28;20063;-58
2023/05/13 12:33:24;;;;;;;8.77;5.28;;;23.30;94.50;;;;;;5029074;28;20032;-59
2023/05/13 12:36:13;;;;;;;8.52;5.95;;;23.20;94.90;;;;;;5053682;28;20506;-58
2023/05/13 12:38:51;;;;;;;9.40;4.90;;;23.10;94.60;;;;;;5034408;28;20037;-61
2023/05/13 12:41:17;;;;;;;7.75;5.10;;;23.10;95.10;;;;;;5067418;28;20563;-60
2023/05/13 12:43:43;;;;;;;8.52;5.28;;;23.30;94.90;;;;;;5030028;28;20039;-59
2023/05/13 12:46:09;;;;;;;6.90;4.82;;;23.30;94.70;;;;;;5053762;28;20092;-60